sensor_id;sensor_type;location;lat;lon;timestamp;pressure;altitude;pressure_sealevel;temperature;humidity
17950;BME280;9100;48.700;9.316;2024-02-04T00:00:56;98857.8;;;8.78;100
17950;BME280;9100;48.700;9.316;2024-02-04T00:01:16;98857;;;8.78;100
17950;BME280;9100;48.700;9.316;2024-02-04T00:01:56;98853.5;;;8.79;100
17950;BME280;9100;48.700;9.316;2024-02-04T00:02:56;98847.6;;;8.78;100
17950;BME280;9100;48.700;9.316;2024-02-04T00:03:56;98844.3;;;8.78;100
17950;BME280;9100;48.700;9.316;2024-02-04T00:04:56;98841.7;;;8.78;100
17950;BME280;9100;48.700;9.316;2024-02-04T00:05:56;98841.8;;;8.76;100
17950;BME280;9100;48.700;9.316;2024-02-04T00:06:16;98840.9;;;8.78;100
17950;BME280;9100;48.700;9.316;2024-02-04T00:06:56;98837.5;;;8.77;100
17950;BME280;9100;48.700;9.316;2024-02-04T00:07:56;98837.7;;;8.75;100
17950;BME280;9100;48.700;9.316;2024-02-04T00:08:55;98842.9;;;8.74;100
17950;BME280;9100;48.700;9.316;2024-02-04T00:09:56;98833.7;;;8.73;100
17950;BME280;9100;48.700;9.316;2024-02-04T00:10:56;98837.90000000001;;;8.72;100
17950;BME280;9100;48.700;9.316;2024-02-04T00:11:16;98841.4;;;8.71;100
17950;BME280;9100;48.700;9.316;2024-02-04T00:11:56;98831.4;;;8.7;100
17950;BME280;9100;48.700;9.316;2024-02-04T00:12:56;98831.4;;;8.7;100
17950;BME280;9100;48.700;9.316;2024-02-04T00:13:56;98828;;;8.69;100
17950;BME280;9100;48.700;9.316;2024-02-04T00:14:55;98825.5;;;8.69;100
17950;BME280;9100;48.700;9.316;2024-02-04T00:15:56;98824.7;;;8.69;100
17950;BME280;9100;48.700;9.316;2024-02-04T00:16:16;98815.4;;;8.68;100
17950;BME280;9100;48.700;9.316;2024-02-04T00:16:56;98813.7;;;8.68;100
17950;BME280;9100;48.700;9.316;2024-02-04T00:17:56;98813;;;8.66;100
17950;BME280;9100;48.700;9.316;2024-02-04T00:18:56;98802;;;8.66;100
17950;BME280;9100;48.700;9.316;2024-02-04T00:19:56;98806.3;;;8.65;100
17950;BME280;9100;48.700;9.316;2024-02-04T00:20:56;98803.9;;;8.64;100
17950;BME280;9100;48.700;9.316;2024-02-04T00:21:16;98798;;;8.63;100
17950;BME280;9100;48.700;9.316;2024-02-04T00:21:56;98802.09999999999;;;8.64;100
17950;BME280;9100;48.700;9.316;2024-02-04T00:22:56;98798.8;;;8.64;100
17950;BME280;9100;48.700;9.316;2024-02-04T00:23:56;98791.4;;;8.61;100
17950;BME280;9100;48.700;9.316;2024-02-04T00:24:56;98793.1;;;8.6;100
17950;BME280;9100;48.700;9.316;2024-02-04T00:25:56;98790.09999999999;;;8.57;100
17950;BME280;9100;48.700;9.316;2024-02-04T00:26:16;98790.20000000001;;;8.55;100
17950;BME280;9100;48.700;9.316;2024-02-04T00:26:56;98783.5;;;8.54;100
17950;BME280;9100;48.700;9.316;2024-02-04T00:27:56;98783.5;;;8.54;100
17950;BME280;9100;48.700;9.316;2024-02-04T00:28:56;98724;;;8.17;100
17950;BME280;9100;48.700;9.316;2024-02-04T00:29:56;98777.9;;;8.51;100
17950;BME280;9100;48.700;9.316;2024-02-04T00:30:55;98788.4;;;8.48;100
17950;BME280;9100;48.700;9.316;2024-02-04T00:31:16;98778.2;;;8.48;100
17950;BME280;9100;48.700;9.316;2024-02-04T00:31:56;98770.4;;;8.49;100
17950;BME280;9100;48.700;9.316;2024-02-04T00:32:56;98771.3;;;8.48;100
17950;BME280;9100;48.700;9.316;2024-02-04T00:33:56;98777.4;;;8.47;100
17950;BME280;9100;48.700;9.316;2024-02-04T00:34:56;98769.8;;;8.46;100
17950;BME280;9100;48.700;9.316;2024-02-04T00:35:56;98770.1;;;8.43;100
17950;BME280;9100;48.700;9.316;2024-02-04T00:36:16;98768.5;;;8.42;100
17950;BME280;9100;48.700;9.316;2024-02-04T00:36:56;98766.09999999999;;;8.4;100
17950;BME280;9100;48.700;9.316;2024-02-04T00:37:56;98761;;;8.4;100
17950;BME280;9100;48.700;9.316;2024-02-04T00:38:56;98756.2;;;8.37;100
17950;BME280;9100;48.700;9.316;2024-02-04T00:39:56;98762.2;;;8.36;100
17950;BME280;9100;48.700;9.316;2024-02-04T00:40:56;98760;;;8.33;100
17950;BME280;9100;48.700;9.316;2024-02-04T00:41:16;98760.79999999999;;;8.34;100
17950;BME280;9100;48.700;9.316;2024-02-04T00:41:56;98763.2;;;8.35;100
17950;BME280;9100;48.700;9.316;2024-02-04T00:42:56;98762.59999999999;;;8.32;100
17950;BME280;9100;48.700;9.316;2024-02-04T00:43:56;98761.8;;;8.31;100
17950;BME280;9100;48.700;9.316;2024-02-04T00:44:56;98755.9;;;8.31;100
17950;BME280;9100;48.700;9.316;2024-02-04T00:45:56;98751.9;;;8.28;100
17950;BME280;9100;48.700;9.316;2024-02-04T00:46:16;98764.59999999999;;;8.28;100
17950;BME280;9100;48.700;9.316;2024-02-04T00:46:56;98752.70000000001;;;8.28;100
17950;BME280;9100;48.700;9.316;2024-02-04T00:47:56;98751.09999999999;;;8.27;100
17950;BME280;9100;48.700;9.316;2024-02-04T00:48:56;98758.90000000001;;;8.26;100
17950;BME280;9100;48.700;9.316;2024-02-04T00:49:56;98754.7;;;8.25;100
17950;BME280;9100;48.700;9.316;2024-02-04T00:50:56;98759;;;8.24;100
17950;BME280;9100;48.700;9.316;2024-02-04T00:51:16;98767.4;;;8.25;100
17950;BME280;9100;48.700;9.316;2024-02-04T00:51:56;98765.8;;;8.24;100
17950;BME280;9100;48.700;9.316;2024-02-04T00:52:56;98766.6;;;8.24;100
17950;BME280;9100;48.700;9.316;2024-02-04T00:53:56;98770.9;;;8.24;100
17950;BME280;9100;48.700;9.316;2024-02-04T00:54:56;98767.6;;;8.23;100
17950;BME280;9100;48.700;9.316;2024-02-04T00:55:56;98772.79999999999;;;8.22;100
17950;BME280;9100;48.700;9.316;2024-02-04T00:56:16;98765.20000000001;;;8.22;100
17950;BME280;9100;48.700;9.316;2024-02-04T00:56:55;98762.59999999999;;;8.22;100
17950;BME280;9100;48.700;9.316;2024-02-04T00:57:56;98766.8;;;8.23;100
17950;BME280;9100;48.700;9.316;2024-02-04T00:58:55;98765.3;;;8.2;100
17950;BME280;9100;48.700;9.316;2024-02-04T00:59:56;98771.2;;;8.21;100
17950;BME280;9100;48.700;9.316;2024-02-04T01:00:56;98771.5;;;8.18;100
17950;BME280;9100;48.700;9.316;2024-02-04T01:01:16;98772.29999999999;;;8.18;100
17950;BME280;9100;48.700;9.316;2024-02-04T01:01:56;98778.2;;;8.19;100
17950;BME280;9100;48.700;9.316;2024-02-04T01:02:56;98775.59999999999;;;8.19;100
17950;BME280;9100;48.700;9.316;2024-02-04T01:03:56;98779.8;;;8.2;100
17950;BME280;9100;48.700;9.316;2024-02-04T01:04:56;98776.2;;;8.22;100
17950;BME280;9100;48.700;9.316;2024-02-04T01:05:56;98774.59999999999;;;8.21;100
17950;BME280;9100;48.700;9.316;2024-02-04T01:06:16;98776.3;;;8.21;100
17950;BME280;9100;48.700;9.316;2024-02-04T01:06:56;98775.40000000001;;;8.22;100
17950;BME280;9100;48.700;9.316;2024-02-04T01:07:56;98761.8;;;8.21;100
17950;BME280;9100;48.700;9.316;2024-02-04T01:08:56;98768.7;;;8.21;100
17950;BME280;9100;48.700;9.316;2024-02-04T01:09:56;98763.7;;;8.19;100
17950;BME280;9100;48.700;9.316;2024-02-04T01:10:56;98766.2;;;8.19;100
17950;BME280;9100;48.700;9.316;2024-02-04T01:11:16;98767.2;;;8.18;100
17950;BME280;9100;48.700;9.316;2024-02-04T01:11:56;98767.2;;;8.18;100
17950;BME280;9100;48.700;9.316;2024-02-04T01:12:56;98768;;;8.19;100
17950;BME280;9100;48.700;9.316;2024-02-04T01:13:56;98772.1;;;8.2;100
17950;BME280;9100;48.700;9.316;2024-02-04T01:14:56;98772.1;;;8.2;100
17950;BME280;9100;48.700;9.316;2024-02-04T01:15:56;98773.7;;;8.21;100
17950;BME280;9100;48.700;9.316;2024-02-04T01:16:16;98779.8;;;8.2;100
17950;BME280;9100;48.700;9.316;2024-02-04T01:16:56;98777.9;;;8.22;100
17950;BME280;9100;48.700;9.316;2024-02-04T01:17:56;98782;;;8.23;100
17950;BME280;9100;48.700;9.316;2024-02-04T01:18:56;98786.2;;;8.24;100
17950;BME280;9100;48.700;9.316;2024-02-04T01:19:56;98784.5;;;8.24;100
17950;BME280;9100;48.700;9.316;2024-02-04T01:20:56;98788.8;;;8.24;100
17950;BME280;9100;48.700;9.316;2024-02-04T01:21:17;98781.1;;;8.24;100
17950;BME280;9100;48.700;9.316;2024-02-04T01:21:56;98781.9;;;8.24;100
17950;BME280;9100;48.700;9.316;2024-02-04T01:22:56;98776.70000000001;;;8.26;100
17950;BME280;9100;48.700;9.316;2024-02-04T01:23:56;98773.40000000001;;;8.25;100
17950;BME280;9100;48.700;9.316;2024-02-04T01:24:56;98777.4;;;8.28;100
17950;BME280;9100;48.700;9.316;2024-02-04T01:25:56;98776.59999999999;;;8.27;100
17950;BME280;9100;48.700;9.316;2024-02-04T01:26:16;98778.3;;;8.27;100
17950;BME280;9100;48.700;9.316;2024-02-04T01:26:56;98782.5;;;8.28;100
17950;BME280;9100;48.700;9.316;2024-02-04T01:27:56;98779;;;8.29;100
17950;BME280;9100;48.700;9.316;2024-02-04T01:28:56;98784.1;;;8.29;100
17950;BME280;9100;48.700;9.316;2024-02-04T01:29:56;98785.7;;;8.3;100
17950;BME280;9100;48.700;9.316;2024-02-04T01:30:56;98775.5;;;8.3;100
17950;BME280;9100;48.700;9.316;2024-02-04T01:31:16;98779.8;;;8.3;100
17950;BME280;9100;48.700;9.316;2024-02-04T01:31:56;98778;;;8.3;100
17950;BME280;9100;48.700;9.316;2024-02-04T01:32:56;98780.6;;;8.3;100
17950;BME280;9100;48.700;9.316;2024-02-04T01:33:56;98775.7;;;8.28;100
17950;BME280;9100;48.700;9.316;2024-02-04T01:34:56;98769.1;;;8.26;100
17950;BME280;9100;48.700;9.316;2024-02-04T01:35:56;98764.9;;;8.25;100
17950;BME280;9100;48.700;9.316;2024-02-04T01:36:16;98765.8;;;8.24;100
17950;BME280;9100;48.700;9.316;2024-02-04T01:36:56;98763.3;;;8.24;100
17950;BME280;9100;48.700;9.316;2024-02-04T01:37:56;98765;;;8.23;100
17950;BME280;9100;48.700;9.316;2024-02-04T01:38:56;98766.8;;;8.23;100
17950;BME280;9100;48.700;9.316;2024-02-04T01:39:56;98766.09999999999;;;8.21;100
17950;BME280;9100;48.700;9.316;2024-02-04T01:40:56;98768.8;;;8.19;100
17950;BME280;9100;48.700;9.316;2024-02-04T01:41:16;98766.4;;;8.18;100
17950;BME280;9100;48.700;9.316;2024-02-04T01:41:56;98763.8;;;8.18;100
17950;BME280;9100;48.700;9.316;2024-02-04T01:42:56;98770.5;;;8.19;100
17950;BME280;9100;48.700;9.316;2024-02-04T01:43:56;98759.7;;;8.17;100
17950;BME280;9100;48.700;9.316;2024-02-04T01:44:56;98753;;;8.16;100
17950;BME280;9100;48.700;9.316;2024-02-04T01:45:56;98747.2;;;8.14;100
17950;BME280;9100;48.700;9.316;2024-02-04T01:46:17;98750.7;;;8.13;100
17950;BME280;9100;48.700;9.316;2024-02-04T01:46:56;98754;;;8.13;100
17950;BME280;9100;48.700;9.316;2024-02-04T01:47:56;98755.8;;;8.13;100
17950;BME280;9100;48.700;9.316;2024-02-04T01:48:56;98757.5;;;8.12;100
17950;BME280;9100;48.700;9.316;2024-02-04T01:49:56;98757.7;;;8.11;100
17950;BME280;9100;48.700;9.316;2024-02-04T01:50:56;98754.3;;;8.1;100
17950;BME280;9100;48.700;9.316;2024-02-04T01:51:17;98757.7;;;8.11;100
17950;BME280;9100;48.700;9.316;2024-02-04T01:51:56;98758.6;;;8.1;100
17950;BME280;9100;48.700;9.316;2024-02-04T01:52:56;98766.09999999999;;;8.11;100
17950;BME280;9100;48.700;9.316;2024-02-04T01:53:56;98766.9;;;8.12;100
17950;BME280;9100;48.700;9.316;2024-02-04T01:54:56;98776.3;;;8.11;100
17950;BME280;9100;48.700;9.316;2024-02-04T01:55:56;98774.7;;;8.1;100
17950;BME280;9100;48.700;9.316;2024-02-04T01:56:16;98773.90000000001;;;8.1;100
17950;BME280;9100;48.700;9.316;2024-02-04T01:56:56;98770.5;;;8.09;100
17950;BME280;9100;48.700;9.316;2024-02-04T01:57:56;98770.7;;;8.08;100
17950;BME280;9100;48.700;9.316;2024-02-04T01:58:56;98770.7;;;8.08;100
17950;BME280;9100;48.700;9.316;2024-02-04T01:59:56;98768.3;;;8.06;100
17950;BME280;9100;48.700;9.316;2024-02-04T02:00:56;98768.3;;;8.06;100
17950;BME280;9100;48.700;9.316;2024-02-04T02:01:17;98761.6;;;8.05;100
17950;BME280;9100;48.700;9.316;2024-02-04T02:01:56;98762.40000000001;;;8.06;100
17950;BME280;9100;48.700;9.316;2024-02-04T02:02:56;98767.5;;;8.06;100
17950;BME280;9100;48.700;9.316;2024-02-04T02:03:56;98763.3;;;8.05;100
17950;BME280;9100;48.700;9.316;2024-02-04T02:04:56;98767.3;;;8.07;100
17950;BME280;9100;48.700;9.316;2024-02-04T02:05:56;98764;;;8.07;100
17950;BME280;9100;48.700;9.316;2024-02-04T02:06:16;98765.9;;;8.05;100
17950;BME280;9100;48.700;9.316;2024-02-04T02:06:56;98762.40000000001;;;8.06;100
17950;BME280;9100;48.700;9.316;2024-02-04T02:07:56;98763;;;8.08;100
17950;BME280;9100;48.700;9.316;2024-02-04T02:08:56;98761.40000000001;;;8.07;100
17950;BME280;9100;48.700;9.316;2024-02-04T02:09:56;98768.3;;;8.06;100
17950;BME280;9100;48.700;9.316;2024-02-04T02:10:57;98767.5;;;8.06;100
17950;BME280;9100;48.700;9.316;2024-02-04T02:11:18;98762.40000000001;;;8.06;100
17950;BME280;9100;48.700;9.316;2024-02-04T02:11:57;98759;;;8.05;100
17950;BME280;9100;48.700;9.316;2024-02-04T02:12:56;98758.2;;;8.05;100
17950;BME280;9100;48.700;9.316;2024-02-04T02:13:57;98761.40000000001;;;8.07;100
17950;BME280;9100;48.700;9.316;2024-02-04T02:14:58;98764;;;8.07;100
17950;BME280;9100;48.700;9.316;2024-02-04T02:15:56;98757.9;;;8.08;100
17950;BME280;9100;48.700;9.316;2024-02-04T02:16:17;98764;;;8.07;100
17950;BME280;9100;48.700;9.316;2024-02-04T02:16:56;98768.9;;;8.08;100
17950;BME280;9100;48.700;9.316;2024-02-04T02:17:57;98765.3;;;8.11;100
17950;BME280;9100;48.700;9.316;2024-02-04T02:18:57;98771;;;8.14;100
17950;BME280;9100;48.700;9.316;2024-02-04T02:19:57;98768.5;;;8.13;100
17950;BME280;9100;48.700;9.316;2024-02-04T02:21:02;98773.29999999999;;;8.16;100
17950;BME280;9100;48.700;9.316;2024-02-04T02:21:19;98769.9;;;8.17;100
17950;BME280;9100;48.700;9.316;2024-02-04T02:21:57;98765.59999999999;;;8.17;100
17950;BME280;9100;48.700;9.316;2024-02-04T02:22:56;98769.6;;;8.2;100
17950;BME280;9100;48.700;9.316;2024-02-04T02:24:00;98749.5;;;8.17;100
17950;BME280;9100;48.700;9.316;2024-02-04T02:24:56;98759.3;;;8.21;100
17950;BME280;9100;48.700;9.316;2024-02-04T02:25:56;98763.4;;;8.22;100
17950;BME280;9100;48.700;9.316;2024-02-04T02:26:16;98755;;;8.22;100
17950;BME280;9100;48.700;9.316;2024-02-04T02:26:56;98759.1;;;8.23;100
17950;BME280;9100;48.700;9.316;2024-02-04T02:27:56;98764.20000000001;;;8.23;100
17950;BME280;9100;48.700;9.316;2024-02-04T02:28:55;98760.7;;;8.24;100
17950;BME280;9100;48.700;9.316;2024-02-04T02:29:56;98766.8;;;8.23;100
17950;BME280;9100;48.700;9.316;2024-02-04T02:30:56;98775.09999999999;;;8.25;100
17950;BME280;9100;48.700;9.316;2024-02-04T02:31:16;98768.4;;;8.24;100
17950;BME280;9100;48.700;9.316;2024-02-04T02:31:56;98770.8;;;8.25;100
17950;BME280;9100;48.700;9.316;2024-02-04T02:32:56;98771.6;;;8.26;100
17950;BME280;9100;48.700;9.316;2024-02-04T02:33:56;98768.1;;;8.27;100
17950;BME280;9100;48.700;9.316;2024-02-04T02:34:56;98771.5;;;8.27;100
17950;BME280;9100;48.700;9.316;2024-02-04T02:35:56;98767.2;;;8.28;100
17950;BME280;9100;48.700;9.316;2024-02-04T02:36:17;98769.7;;;8.28;100
17950;BME280;9100;48.700;9.316;2024-02-04T02:36:57;98774.7;;;8.3;100
17950;BME280;9100;48.700;9.316;2024-02-04T02:37:56;98773.90000000001;;;8.29;100
17950;BME280;9100;48.700;9.316;2024-02-04T02:38:58;98777.09999999999;;;8.31;100
17950;BME280;9100;48.700;9.316;2024-02-04T02:39:57;98778.7;;;8.32;100
17950;BME280;9100;48.700;9.316;2024-02-04T02:40:58;98778.7;;;8.32;100
17950;BME280;9100;48.700;9.316;2024-02-04T02:41:16;98777;;;8.33;100
17950;BME280;9100;48.700;9.316;2024-02-04T02:41:57;98786.2;;;8.34;100
17950;BME280;9100;48.700;9.316;2024-02-04T02:42:56;98783.5;;;8.35;100
17950;BME280;9100;48.700;9.316;2024-02-04T02:43:56;98781.8;;;8.36;100
17950;BME280;9100;48.700;9.316;2024-02-04T02:44:56;98775.9;;;8.35;100
17950;BME280;9100;48.700;9.316;2024-02-04T02:45:56;98781;;;8.35;100
17950;BME280;9100;48.700;9.316;2024-02-04T02:46:16;98779.4;;;8.34;100
17950;BME280;9100;48.700;9.316;2024-02-04T02:46:56;98775.9;;;8.35;100
17950;BME280;9100;48.700;9.316;2024-02-04T02:47:57;98773.5;;;8.34;100
17950;BME280;9100;48.700;9.316;2024-02-04T02:48:56;98771.7;;;8.34;100
17950;BME280;9100;48.700;9.316;2024-02-04T02:49:56;98774.40000000001;;;8.33;100
17950;BME280;9100;48.700;9.316;2024-02-04T02:50:56;98773.6;;;8.32;100
17950;BME280;9100;48.700;9.316;2024-02-04T02:51:16;98769.5;;;8.31;100
17950;BME280;9100;48.700;9.316;2024-02-04T02:51:56;98772.79999999999;;;8.32;100
17950;BME280;9100;48.700;9.316;2024-02-04T02:52:56;98776.2;;;8.32;100
17950;BME280;9100;48.700;9.316;2024-02-04T02:53:56;98774.40000000001;;;8.33;100
17950;BME280;9100;48.700;9.316;2024-02-04T02:54:56;98774.40000000001;;;8.33;100
17950;BME280;9100;48.700;9.316;2024-02-04T02:55:56;98773;;;8.3;100
17950;BME280;9100;48.700;9.316;2024-02-04T02:56:16;98777.09999999999;;;8.31;100
17950;BME280;9100;48.700;9.316;2024-02-04T02:56:56;98769.5;;;8.31;100
17950;BME280;9100;48.700;9.316;2024-02-04T02:57:56;98769.6;;;8.3;100
17950;BME280;9100;48.700;9.316;2024-02-04T02:58:56;98773.7;;;8.31;100
17950;BME280;9100;48.700;9.316;2024-02-04T02:59:56;98770.4;;;8.3;100
17950;BME280;9100;48.700;9.316;2024-02-04T03:00:56;98768.8;;;8.29;100
17950;BME280;9100;48.700;9.316;2024-02-04T03:01:16;98775.7;;;8.28;100
17950;BME280;9100;48.700;9.316;2024-02-04T03:01:56;98770.6;;;8.28;100
17950;BME280;9100;48.700;9.316;2024-02-04T03:02:56;98769.7;;;8.28;100
17950;BME280;9100;48.700;9.316;2024-02-04T03:03:56;98765.5;;;8.28;100
17950;BME280;9100;48.700;9.316;2024-02-04T03:04:56;98767.2;;;8.28;100
17950;BME280;9100;48.700;9.316;2024-02-04T03:05:56;98771.40000000001;;;8.29;100
17950;BME280;9100;48.700;9.316;2024-02-04T03:06:16;98773.1;;;8.28;100
17950;BME280;9100;48.700;9.316;2024-02-04T03:06:56;98776.3;;;8.31;100
17950;BME280;9100;48.700;9.316;2024-02-04T03:07:56;98774.59999999999;;;8.31;100
17950;BME280;9100;48.700;9.316;2024-02-04T03:08:56;98775.3;;;8.33;100
17950;BME280;9100;48.700;9.316;2024-02-04T03:09:56;98774.40000000001;;;8.33;100
17950;BME280;9100;48.700;9.316;2024-02-04T03:10:56;98778.7;;;8.32;100
17950;BME280;9100;48.700;9.316;2024-02-04T03:11:16;98777.09999999999;;;8.31;100
17950;BME280;9100;48.700;9.316;2024-02-04T03:11:56;98777.8;;;8.33;100
17950;BME280;9100;48.700;9.316;2024-02-04T03:12:56;98772.79999999999;;;8.32;100
17950;BME280;9100;48.700;9.316;2024-02-04T03:13:56;98772;;;8.31;100
17950;BME280;9100;48.700;9.316;2024-02-04T03:14:56;98770.4;;;8.3;100
17950;BME280;9100;48.700;9.316;2024-02-04T03:15:56;98763.7;;;8.29;100
17950;BME280;9100;48.700;9.316;2024-02-04T03:16:16;98768.8;;;8.29;100
17950;BME280;9100;48.700;9.316;2024-02-04T03:16:56;98766.3;;;8.29;100
17950;BME280;9100;48.700;9.316;2024-02-04T03:17:56;98762.09999999999;;;8.28;100
17950;BME280;9100;48.700;9.316;2024-02-04T03:18:56;98762.09999999999;;;8.28;100
17950;BME280;9100;48.700;9.316;2024-02-04T03:19:56;98755.5;;;8.25;100
17950;BME280;9100;48.700;9.316;2024-02-04T03:20:56;98745.4;;;8.24;100
17950;BME280;9100;48.700;9.316;2024-02-04T03:21:16;98751.5;;;8.23;100
17950;BME280;9100;48.700;9.316;2024-02-04T03:21:56;98750.5;;;8.24;100
17950;BME280;9100;48.700;9.316;2024-02-04T03:22:56;98753.09999999999;;;8.24;100
17950;BME280;9100;48.700;9.316;2024-02-04T03:23:56;98743.8;;;8.23;100
17950;BME280;9100;48.700;9.316;2024-02-04T03:24:56;98742.2;;;8.22;100
17950;BME280;9100;48.700;9.316;2024-02-04T03:25:56;98740.59999999999;;;8.21;100
17950;BME280;9100;48.700;9.316;2024-02-04T03:26:16;98745;;;8.19;100
17950;BME280;9100;48.700;9.316;2024-02-04T03:26:56;98739;;;8.2;100
17950;BME280;9100;48.700;9.316;2024-02-04T03:27:56;98733.1;;;8.19;100
17950;BME280;9100;48.700;9.316;2024-02-04T03:28:56;98745.8;;;8.19;100
17950;BME280;9100;48.700;9.316;2024-02-04T03:29:56;98749.2;;;8.2;100
17950;BME280;9100;48.700;9.316;2024-02-04T03:30:56;98746.7;;;8.2;100
17950;BME280;9100;48.700;9.316;2024-02-04T03:31:19;98737.40000000001;;;8.19;100
17950;BME280;9100;48.700;9.316;2024-02-04T03:31:56;98737.3;;;8.2;100
17950;BME280;9100;48.700;9.316;2024-02-04T03:32:56;98730.4;;;8.21;100
17950;BME280;9100;48.700;9.316;2024-02-04T03:33:56;98727.09999999999;;;8.2;100
17950;BME280;9100;48.700;9.316;2024-02-04T03:34:56;98733.8;;;8.21;100
17950;BME280;9100;48.700;9.316;2024-02-04T03:35:56;98749.90000000001;;;8.22;100
17950;BME280;9100;48.700;9.316;2024-02-04T03:36:18;98745.7;;;8.21;100
17950;BME280;9100;48.700;9.316;2024-02-04T03:36:56;98744.1;;;8.2;100
17950;BME280;9100;48.700;9.316;2024-02-04T03:37:56;98743.1;;;8.22;100
17950;BME280;9100;48.700;9.316;2024-02-04T03:38:56;98748.2;;;8.22;100
17950;BME280;9100;48.700;9.316;2024-02-04T03:39:56;98743.1;;;8.22;100
17950;BME280;9100;48.700;9.316;2024-02-04T03:40:56;98740.5;;;8.22;100
17950;BME280;9100;48.700;9.316;2024-02-04T03:41:16;98736.3;;;8.21;100
17950;BME280;9100;48.700;9.316;2024-02-04T03:41:56;98741.3;;;8.23;100
17950;BME280;9100;48.700;9.316;2024-02-04T03:42:56;98738.7;;;8.23;100
17950;BME280;9100;48.700;9.316;2024-02-04T03:43:56;98738.7;;;8.23;100
17950;BME280;9100;48.700;9.316;2024-02-04T03:44:56;98737.09999999999;;;8.22;100
17950;BME280;9100;48.700;9.316;2024-02-04T03:45:56;98732.1;;;8.22;100
17950;BME280;9100;48.700;9.316;2024-02-04T03:46:17;98738.9;;;8.21;100
17950;BME280;9100;48.700;9.316;2024-02-04T03:46:56;98747.29999999999;;;8.22;100
17950;BME280;9100;48.700;9.316;2024-02-04T03:47:56;98734.6;;;8.22;100
17950;BME280;9100;48.700;9.316;2024-02-04T03:48:56;98735.5;;;8.21;100
17950;BME280;9100;48.700;9.316;2024-02-04T03:49:56;98740.5;;;8.22;100
17950;BME280;9100;48.700;9.316;2024-02-04T03:50:56;98735.5;;;8.21;100
17950;BME280;9100;48.700;9.316;2024-02-04T03:51:16;98745.8;;;8.19;100
17950;BME280;9100;48.700;9.316;2024-02-04T03:51:56;98736.5;;;8.2;100
17950;BME280;9100;48.700;9.316;2024-02-04T03:52:56;98745.7;;;8.21;100
17950;BME280;9100;48.700;9.316;2024-02-04T03:53:56;98746.7;;;8.2;100
17950;BME280;9100;48.700;9.316;2024-02-04T03:54:56;98739.8;;;8.2;100
17950;BME280;9100;48.700;9.316;2024-02-04T03:55:56;98736.6;;;8.18;100
17950;BME280;9100;48.700;9.316;2024-02-04T03:56:16;98734.2;;;8.17;100
17950;BME280;9100;48.700;9.316;2024-02-04T03:56:56;98741.8;;;8.17;100
17950;BME280;9100;48.700;9.316;2024-02-04T03:57:56;98729.1;;;8.17;100
17950;BME280;9100;48.700;9.316;2024-02-04T03:58:56;98737.7;;;8.16;100
17950;BME280;9100;48.700;9.316;2024-02-04T03:59:56;98733.7;;;8.13;100
17950;BME280;9100;48.700;9.316;2024-02-04T04:00:56;98731.2;;;8.12;100
17950;BME280;9100;48.700;9.316;2024-02-04T04:01:16;98725.3;;;8.11;100
17950;BME280;9100;48.700;9.316;2024-02-04T04:01:56;98726.2;;;8.12;100
17950;BME280;9100;48.700;9.316;2024-02-04T04:02:56;98731.5;;;8.09;100
17950;BME280;9100;48.700;9.316;2024-02-04T04:03:56;98720.5;;;8.08;100
17950;BME280;9100;48.700;9.316;2024-02-04T04:04:56;98725.59999999999;;;8.08;100
17950;BME280;9100;48.700;9.316;2024-02-04T04:05:56;98724;;;8.07;100
17950;BME280;9100;48.700;9.316;2024-02-04T04:06:16;98724.8;;;8.08;100
17950;BME280;9100;48.700;9.316;2024-02-04T04:06:56;98716.4;;;8.07;100
17950;BME280;9100;48.700;9.316;2024-02-04T04:07:56;98718.8;;;8.09;100
17950;BME280;9100;48.700;9.316;2024-02-04T04:08:56;98717.2;;;8.08;100
17950;BME280;9100;48.700;9.316;2024-02-04T04:09:56;98704.6;;;8.06;100
17950;BME280;9100;48.700;9.316;2024-02-04T04:10:56;98707.3;;;8.05;100
17950;BME280;9100;48.700;9.316;2024-02-04T04:11:16;98706.6;;;8.03;100
17950;BME280;9100;48.700;9.316;2024-02-04T04:11:56;98709.79999999999;;;8.05;100
17950;BME280;9100;48.700;9.316;2024-02-04T04:12:56;98710.79999999999;;;8.04;100
17950;BME280;9100;48.700;9.316;2024-02-04T04:13:56;98709;;;8.04;100
17950;BME280;9100;48.700;9.316;2024-02-04T04:14:56;98713.3;;;8.04;100
17950;BME280;9100;48.700;9.316;2024-02-04T04:15:56;98733.7;;;8.04;100
17950;BME280;9100;48.700;9.316;2024-02-04T04:16:19;98728.59999999999;;;8.04;100
17950;BME280;9100;48.700;9.316;2024-02-04T04:16:56;98729.4;;;8.04;100
17950;BME280;9100;48.700;9.316;2024-02-04T04:17:56;98729.3;;;8.06;100
17950;BME280;9100;48.700;9.316;2024-02-04T04:18:56;98729.3;;;8.06;100
17950;BME280;9100;48.700;9.316;2024-02-04T04:19:56;98736;;;8.07;100
17950;BME280;9100;48.700;9.316;2024-02-04T04:20:56;98729.1;;;8.07;100
17950;BME280;9100;48.700;9.316;2024-02-04T04:21:16;98740.09999999999;;;8.08;100
17950;BME280;9100;48.700;9.316;2024-02-04T04:21:56;98735.79999999999;;;8.08;100
17950;BME280;9100;48.700;9.316;2024-02-04T04:22:56;98735.7;;;8.1;100
17950;BME280;9100;48.700;9.316;2024-02-04T04:23:56;98739;;;8.1;100
17950;BME280;9100;48.700;9.316;2024-02-04T04:24:56;98733.8;;;8.12;100
17950;BME280;9100;48.700;9.316;2024-02-04T04:25:56;98737.3;;;8.11;100
17950;BME280;9100;48.700;9.316;2024-02-04T04:26:17;98739.20000000001;;;8.09;100
17950;BME280;9100;48.700;9.316;2024-02-04T04:26:56;98734.79999999999;;;8.11;100
17950;BME280;9100;48.700;9.316;2024-02-04T04:27:56;98734.79999999999;;;8.11;100
17950;BME280;9100;48.700;9.316;2024-02-04T04:28:56;98742.4;;;8.11;100
17950;BME280;9100;48.700;9.316;2024-02-04T04:29:56;98739;;;8.1;100
17950;BME280;9100;48.700;9.316;2024-02-04T04:30:56;98749.2;;;8.1;100
17950;BME280;9100;48.700;9.316;2024-02-04T04:31:16;98743.3;;;8.1;100
17950;BME280;9100;48.700;9.316;2024-02-04T04:31:56;98744.9;;;8.11;100
17950;BME280;9100;48.700;9.316;2024-02-04T04:32:56;98738.9;;;8.12;100
17950;BME280;9100;48.700;9.316;2024-02-04T04:33:56;98734;;;8.1;100
17950;BME280;9100;48.700;9.316;2024-02-04T04:34:56;98740.59999999999;;;8.11;100
17950;BME280;9100;48.700;9.316;2024-02-04T04:35:56;98740.8;;;8.1;100
17950;BME280;9100;48.700;9.316;2024-02-04T04:36:16;98744.9;;;8.11;100
17950;BME280;9100;48.700;9.316;2024-02-04T04:36:56;98740.59999999999;;;8.11;100